Sparta, WI

6:52 PM CDT on May 29, 2017 (GMT -0500)
Sparta-Fort McCoy

Weather History for KCMY - March, 2014

Change the Weather History Date:

Saturday, March 22, 2014

  Actual Average Record
Temperature  
Mean Temperature 25 °F -  
Max Temperature 34 °F 43 °F 75 °F (2012)
Min Temperature 15 °F 23 °F -2 °F (2013)
Degree Days  
Heating Degree Days 40    
Moisture  
Dew Point 12 °F    
Average Humidity 60    
Maximum Humidity 79    
Minimum Humidity 40    
Precipitation  
Precipitation 0.00 in - - ()
Sea Level Pressure  
Sea Level Pressure 30.25 in    
Wind  
Wind Speed 12 mph (NW)    
Max Wind Speed 18 mph    
Max Gust Speed 24 mph    
Visibility 10 miles    
Events Snow    
Averages and records for this station are not official NWS values.
T = Trace of Precipitation, MM = Missing Value Source: NWS Daily Summary

Daily Weather History Graph

Daily Weather History Graph

Search for Another Location

Airport or City:

Trip Planner

Search our weather history database for the weather conditions in past years. The results will help you decide how hot, cold, wet, or windy it might be!

Date:

Astronomy

Mar. 22, 2014 Rise Set
Actual Time 7:02 AM CDT 7:17 PM CDT
Civil Twilight 6:33 AM CDT 7:46 PM CDT
Nautical Twilight 5:59 AM CDT 8:20 PM CDT
Astronomical Twilight 5:25 AM CDT 8:55 PM CDT
Moon 12:46 AM CDT (3/22) 10:36 AM CDT (3/22)
Length of Visible Light 13h 12m
Length of Day
12h 15m
Waning Gibbous, 65% of the Moon is Illuminated
Mar 22
Waning Gibbous
Mar 23
Last Quarter
Mar 30
New
Apr 7
First Quarter
Apr 15
Full

Hourly Weather History & Observations

Time (CDT) Temp. Windchill Dew Point Humidity Pressure Visibility Wind Dir Wind Speed Gust Speed Precip Events Conditions
12:15 AM 35.6 °F 27.1 °F 26.1 °F 68% 30.00 in 10.0 mi NW 12.7 mph 19.6 mph N/A   Overcast
12:35 AM 35.6 °F 28.6 °F 26.8 °F 70% 30.00 in 10.0 mi WNW 9.2 mph 16.1 mph N/A   Overcast
12:55 AM 35.1 °F 27.9 °F 27.5 °F 74% 30.00 in 10.0 mi WNW 9.2 mph - N/A   Overcast
1:15 AM 34.7 °F 26.9 °F 28.0 °F 77% 30.01 in 10.0 mi WNW 10.4 mph 17.3 mph N/A   Overcast
1:35 AM 34.7 °F 26.4 °F 28.0 °F 77% 30.02 in 10.0 mi WNW 11.5 mph 19.6 mph N/A   Overcast
1:55 AM 34.2 °F 26.2 °F 28.0 °F 78% 30.03 in 10.0 mi WNW 10.4 mph 16.1 mph N/A   Overcast
2:15 AM 33.6 °F 24.1 °F 27.5 °F 78% 30.04 in 10.0 mi WNW 13.8 mph 20.7 mph N/A   Overcast
2:35 AM 32.4 °F 21.3 °F 26.6 °F 79% 30.04 in 10.0 mi WNW 17.3 mph 23.0 mph N/A   Overcast
2:55 AM 32.0 °F 22.5 °F 26.2 °F 79% 30.05 in 10.0 mi WNW 12.7 mph 20.7 mph N/A   Overcast
3:15 AM 31.6 °F 22.6 °F 25.7 °F 79% 30.06 in 10.0 mi NW 11.5 mph - N/A   Overcast
3:35 AM 31.3 °F 20.7 °F 25.3 °F 79% 30.06 in 10.0 mi NW 15.0 mph 20.7 mph N/A   Overcast
3:55 AM 30.7 °F 20.4 °F 24.1 °F 76% 30.07 in 10.0 mi WNW 13.8 mph 21.9 mph N/A   Overcast
4:15 AM 30.2 °F 19.8 °F 23.9 °F 77% 30.08 in 10.0 mi WNW 13.8 mph 19.6 mph N/A   Overcast
4:35 AM 29.8 °F 18.9 °F 22.8 °F 75% 30.09 in 10.0 mi WNW 15.0 mph 24.2 mph N/A   Overcast
4:55 AM 29.1 °F 20.0 °F 22.5 °F 76% 30.10 in 10.0 mi WNW 10.4 mph 20.7 mph N/A   Overcast
5:15 AM 28.4 °F 16.6 °F 21.7 °F 76% 30.11 in 10.0 mi NNW 16.1 mph 21.9 mph N/A   Overcast
5:35 AM 27.9 °F 15.9 °F 21.2 °F 76% 30.12 in 10.0 mi NW 16.1 mph 20.7 mph N/A   Overcast
5:55 AM 27.1 °F 14.9 °F 20.3 °F 75% 30.13 in 10.0 mi NW 16.1 mph 24.2 mph N/A   Overcast
6:15 AM 26.6 °F 14.3 °F 19.9 °F 76% 30.14 in 10.0 mi WNW 16.1 mph 21.9 mph N/A   Overcast
6:35 AM 25.9 °F 14.3 °F 19.0 °F 75% 30.15 in 10.0 mi WNW 13.8 mph 20.7 mph N/A   Overcast
6:55 AM 25.2 °F 13.3 °F 18.1 °F 75% 30.17 in 10.0 mi WNW 13.8 mph 24.2 mph N/A   Overcast
7:15 AM 24.6 °F 12.2 °F 18.0 °F 76% 30.19 in 10.0 mi WNW 15.0 mph 21.9 mph N/A   Overcast
7:35 AM 23.9 °F 9.9 °F 17.1 °F 75% 30.20 in 10.0 mi WNW 18.4 mph 24.2 mph N/A   Overcast
7:50 AM 23.5 °F 10.8 °F 16.5 °F 75% 30.21 in 10.0 mi NNW 15.0 mph 23.0 mph N/A   Overcast
8:15 AM 22.6 °F 9.2 °F 14.5 °F 71% 30.22 in 10.0 mi WNW 16.1 mph 23.0 mph N/A Snow Light Snow
8:30 AM 21.9 °F 10.4 °F 13.8 °F 71% 30.24 in 10.0 mi WNW 11.5 mph 20.7 mph N/A Snow Light Snow
8:55 AM 21.2 °F 8.9 °F 12.2 °F 68% 30.25 in 10.0 mi WNW 12.7 mph 19.6 mph N/A Snow Light Snow
9:15 AM 21.4 °F 8.0 °F 11.7 °F 66% 30.26 in 10.0 mi WNW 15.0 mph 18.4 mph N/A Snow Light Snow
9:35 AM 20.8 °F 7.9 °F 11.5 °F 67% 30.27 in 7.0 mi WNW 13.8 mph 19.6 mph N/A   Overcast
9:50 AM 21.4 °F 9.1 °F 10.9 °F 64% 30.28 in 10.0 mi NW 12.7 mph 21.9 mph N/A   Mostly Cloudy
10:15 AM 21.9 °F 9.2 °F 10.2 °F 61% 30.28 in 10.0 mi NW 13.8 mph 21.9 mph N/A   Clear
10:35 AM 22.5 °F 10.5 °F 9.9 °F 59% 30.29 in 10.0 mi WNW 12.7 mph - N/A   Clear
10:55 AM 23.4 °F 11.1 °F 10.2 °F 57% 30.29 in 10.0 mi NW 13.8 mph - N/A   Clear
11:15 AM 23.7 °F 13.3 °F 10.4 °F 57% 30.30 in 10.0 mi WNW 10.4 mph 17.3 mph N/A   Scattered Clouds
11:35 AM 25.0 °F 15.5 °F 10.8 °F 55% 30.31 in 10.0 mi NW 9.2 mph - N/A   Scattered Clouds
11:55 AM 24.3 °F 12.7 °F 9.5 °F 53% 30.30 in 10.0 mi NW 12.7 mph 20.7 mph N/A   Scattered Clouds
12:15 PM 24.4 °F 12.4 °F 8.8 °F 51% 30.31 in 10.0 mi NW 13.8 mph 20.7 mph N/A   Scattered Clouds
12:30 PM 25.3 °F 16.0 °F 8.8 °F 50% 30.31 in 10.0 mi NW 9.2 mph 19.6 mph N/A   Clear
12:55 PM 25.3 °F 13.6 °F 8.8 °F 50% 30.31 in 10.0 mi NW 13.8 mph 18.4 mph N/A   Scattered Clouds
1:15 PM 25.9 °F 14.8 °F 8.4 °F 48% 30.31 in 10.0 mi NNW 12.7 mph 20.7 mph N/A   Clear
1:35 PM 26.4 °F 14.5 °F 8.2 °F 46% 30.31 in 10.0 mi NW 15.0 mph 19.6 mph N/A   Scattered Clouds
1:55 PM 26.2 °F 14.7 °F 7.0 °F 44% 30.31 in 10.0 mi NW 13.8 mph 23.0 mph N/A   Clear
2:15 PM 26.2 °F 13.0 °F 6.8 °F 44% 30.31 in 10.0 mi NNW 18.4 mph - N/A   Clear
2:35 PM 26.6 °F 13.4 °F 7.3 °F 44% 30.31 in 10.0 mi NW 18.4 mph 24.2 mph N/A   Clear
2:55 PM 26.4 °F 16.0 °F 6.3 °F 42% 30.31 in 10.0 mi NW 11.5 mph 21.9 mph N/A   Clear
3:15 PM 26.2 °F 15.2 °F 5.4 °F 41% 30.31 in 10.0 mi WNW 12.7 mph 18.4 mph N/A   Clear
3:35 PM 27.1 °F 18.2 °F 5.9 °F 41% 30.31 in 10.0 mi NW 9.2 mph 18.4 mph N/A   Clear
3:55 PM 25.9 °F 14.3 °F 4.6 °F 40% 30.31 in 10.0 mi WNW 13.8 mph - N/A   Clear
4:10 PM 25.5 °F 14.9 °F 4.8 °F 41% 30.31 in 10.0 mi NNW 11.5 mph 18.4 mph N/A   Clear
4:35 PM 25.3 °F 14.1 °F 4.6 °F 41% 30.32 in 10.0 mi NNW 12.7 mph 20.7 mph N/A   Clear
4:55 PM 25.9 °F 14.3 °F 4.8 °F 41% 30.32 in 10.0 mi NW 13.8 mph 19.6 mph N/A   Clear
5:15 PM 24.6 °F 15.1 °F 4.3 °F 42% 30.33 in 10.0 mi NW 9.2 mph 20.7 mph N/A   Clear
5:35 PM 24.6 °F 11.7 °F 5.7 °F 45% 30.34 in 10.0 mi WNW 16.1 mph 19.6 mph N/A   Clear
5:55 PM 23.9 °F 11.2 °F 4.6 °F 44% 30.35 in 10.0 mi WNW 15.0 mph 20.7 mph N/A   Clear
6:15 PM 23.0 °F 11.1 °F 4.3 °F 45% 30.36 in 10.0 mi WNW 12.7 mph 19.6 mph N/A   Clear
6:35 PM 22.6 °F 10.7 °F 4.5 °F 46% 30.36 in 10.0 mi NW 12.7 mph - N/A   Clear
6:55 PM 21.9 °F 11.7 °F 5.7 °F 50% 30.37 in 10.0 mi NW 9.2 mph - N/A   Clear
7:15 PM 20.8 °F 11.2 °F 6.1 °F 53% 30.37 in 10.0 mi NW 8.1 mph 16.1 mph N/A   Clear
7:30 PM 20.5 °F 11.7 °F 5.5 °F 53% 30.38 in 10.0 mi NW 6.9 mph - N/A   Clear
7:55 PM 20.1 °F 10.3 °F 5.5 °F 53% 30.39 in 10.0 mi NW 8.1 mph - N/A   Clear
8:15 PM 19.4 °F 9.5 °F 5.5 °F 55% 30.39 in 10.0 mi NW 8.1 mph - N/A   Clear
8:35 PM 19.0 °F 8.2 °F 5.5 °F 56% 30.40 in 10.0 mi NW 9.2 mph - N/A   Clear
8:55 PM 18.9 °F 8.8 °F 5.5 °F 56% 30.41 in 10.0 mi NW 8.1 mph 16.1 mph N/A   Clear
9:15 PM 18.7 °F 10.6 °F 5.7 °F 57% 30.41 in 10.0 mi NW 5.8 mph - N/A   Clear
9:35 PM 18.1 °F 7.1 °F 5.2 °F 57% 30.41 in 10.0 mi NW 9.2 mph - N/A   Clear
9:55 PM 17.6 °F 5.7 °F 4.1 °F 56% 30.42 in 10.0 mi NW 10.4 mph 17.3 mph N/A   Clear
10:15 PM 17.4 °F 4.7 °F 3.9 °F 56% 30.42 in 10.0 mi NW 11.5 mph 16.1 mph N/A   Clear
10:35 PM 16.9 °F 5.5 °F 4.1 °F 57% 30.43 in 10.0 mi NW 9.2 mph - N/A   Clear
10:55 PM 16.7 °F 6.2 °F 4.5 °F 59% 30.43 in 10.0 mi NW 8.1 mph - N/A   Clear
11:15 PM 16.5 °F 6.0 °F 3.7 °F 57% 30.44 in 10.0 mi NW 8.1 mph - N/A   Clear
11:35 PM 15.8 °F 8.6 °F 3.9 °F 60% 30.44 in 10.0 mi NW 4.6 mph - N/A   Clear
11:55 PM 15.4 °F 6.8 °F 3.7 °F 60% 30.44 in 10.0 mi NW 5.8 mph - N/A   Clear